Agua Nueva, Texas
Current Conditions -  °F | °C
As of 12:15 PM on Saturday 25 Oct 2014 (Local Time) from KHBV Reporting Station
Clear Clear  
Wind Chill: 82°   Ceiling: Unl
Heat Index: 82°   Visibility: 10mi
Dew Point: 54°   Wind: 0mph
Humidity: 37%   Direction: NA
Pressure: 30.17"   Gusts: NA
Location:  27.0695°N, 98.7494°W
Report Text: KHBV 251715Z AUTO 00000KT 10SM CLR 28/12 A3017 RMK AO2 T02800121
Loading
Personal Weather Stations






























Interactive Weather Map New forecast layout! Learn more

10-Day Weather Forecast

Advertisements
Track Severe Weather on mobile